Minerva, Texas
Current Conditions -  °F | °C
As of 2:15 PM on Wednesday 26 Nov 2014 (Local Time) from KT35 Reporting Station
Clear Clear  
Wind Chill: 72°   Ceiling: Unl
Heat Index: 72°   Visibility: 10mi
Dew Point: 32°   Wind: 12mph
Humidity: 23%   Direction: 310°NW
Pressure: 30.16"   Gusts: 16mph
Location:  30.6499°N, 96.9973°W
Report Text: KT35 262015Z AUTO 31010G14KT 10SM CLR 22/00 A3016 RMK AO2 T02230002
Loading
Personal Weather Stations






























Interactive Weather Map New forecast layout! Learn more

10-Day Weather Forecast

Advertisements
Track Severe Weather on mobile